Date,TemperatureHighF,TemperatureAvgF,TemperatureLowF,DewpointHighF,DewpointAvgF,DewpointLowF,HumidityHigh,HumidityAvg,HumidityLow,PressureMaxIn,PressureMinIn,WindSpeedMaxMPH,WindSpeedAvgMPH,GustSpeedMaxMPH,PrecipitationSumIn
2013-5-29,78,71,60,58,54,48,94,56,43,0.00,40.00,8,4,18,0.06
2013-5-30,72,63,58,67,60,57,99,91,75,0.00,40.00,8,6,16,0.13
2013-5-31,78,63,51,61,56,41,98,82,40,0.00,40.00,13,6,27,0.30
2013-6-1,59,50,42,58,47,-100,99,95,90,0.00,40.00,7,3,17,0.15
2013-6-2,65,50,35,40,36,31,94,63,33,0.00,40.00,7,4,17,0.01
2013-6-3,67,49,28,40,32,26,97,59,24,0.00,40.00,8,2,14,0.00
2013-6-4,66,53,38,38,30,24,91,48,21,0.00,40.00,9,4,19,0.00
2013-6-5,49,47,43,48,41,26,99,83,41,0.00,40.00,7,4,17,0.42
2013-6-6,60,49,39,48,43,38,97,82,53,0.00,40.00,7,4,14,0.03
2013-6-7,67,50,31,45,38,30,98,68,31,0.00,40.00,6,2,12,0.00
2013-6-8,73,57,38,48,43,37,98,63,35,0.00,40.00,9,4,15,0.00
2013-6-9,63,52,42,53,46,33,96,79,56,0.00,40.00,9,5,20,0.23
2013-6-10,70,60,52,60,55,50,98,87,69,0.00,40.00,5,2,16,0.04
2013-6-11,77,62,47,61,52,42,99,74,32,0.00,40.00,4,1,12,0.00
2013-6-12,80,62,40,56,47,39,98,65,36,0.00,40.00,6,2,14,0.00
2013-6-13,77,63,43,51,47,40,90,59,36,0.00,40.00,7,4,16,0.00
2013-6-14,73,58,38,50,43,35,98,61,38,0.00,40.00,9,5,19,0.01
2013-6-15,71,57,50,61,50,35,98,78,49,0.00,40.00,5,2,10,0.47
2013-6-16,80,63,46,58,54,40,98,78,41,0.00,40.00,5,2,17,0.79
2013-6-17,58,50,39,54,45,35,99,83,53,0.00,40.00,8,4,16,0.59
2013-6-18,71,52,30,40,34,28,98,59,27,0.00,40.00,7,3,15,0.02
2013-6-19,80,61,33,57,48,32,97,67,42,0.00,40.00,6,2,17,0.00
2013-6-20,64,59,51,63,57,50,98,93,83,0.00,40.00,5,2,11,0.74
2013-6-22,63,59,57,60,58,57,100,97,90,0.00,40.00,8,6,18,0.03
2013-6-23,75,63,57,67,60,57,100,91,70,0.00,40.00,7,4,15,0.21
2013-6-24,82,64,49,63,55,49,99,78,36,0.00,40.00,4,1,10,0.07
2013-6-25,85,65,49,71,58,49,99,82,42,0.00,40.00,6,2,12,0.00
2013-6-26,76,66,56,69,63,55,99,91,78,0.00,40.00,4,1,12,0.50
2013-6-27,81,65,55,68,61,55,100,89,53,0.00,40.00,4,1,13,0.45
2013-6-28,69,63,59,66,62,58,99,95,81,0.00,40.00,6,2,10,0.83
2013-6-29,73,64,49,62,56,48,100,78,47,0.00,40.00,8,3,15,0.03
2013-6-30,83,70,44,57,51,44,99,56,32,0.00,40.00,6,2,14,0.00
2013-7-1,74,64,47,55,48,41,99,58,46,0.00,40.00,7,4,14,0.00
2013-7-2,75,52,39,49,40,33,98,74,29,0.00,40.00,6,1,11,0.00
2013-7-3,78,56,40,53,46,39,98,74,38,0.00,40.00,7,2,16,0.00
2013-7-4,82,60,44,59,52,43,98,79,37,0.00,40.00,7,2,14,0.00
2013-7-5,83,73,61,62,59,56,90,63,46,0.00,40.00,9,5,19,0.22
2013-7-6,80,68,57,71,65,57,99,93,69,0.00,40.00,4,1,12,1.66
2013-7-7,72,64,56,67,62,55,99,94,83,0.00,40.00,7,4,13,1.55
2013-7-8,78,62,56,65,57,-100,100,91,63,0.00,40.00,4,2,10,0.19
2013-7-9,74,61,53,66,60,53,100,96,76,0.00,40.00,4,2,10,0.12
2013-7-10,76,64,52,58,55,52,99,77,46,0.00,40.00,4,2,16,0.07
2013-7-11,79,63,44,63,54,44,99,76,49,0.00,40.00,7,2,16,0.00
2013-7-12,81,70,54,64,59,53,97,70,52,0.00,40.00,9,5,19,0.00
2013-7-13,75,69,64,70,65,60,98,88,64,0.00,40.00,6,3,14,0.36
2013-7-14,74,68,65,68,65,60,99,88,74,0.00,40.00,5,2,16,0.41
2013-7-15,79,68,64,70,66,64,100,93,71,0.00,40.00,4,2,9,0.65
2013-7-16,87,78,68,71,67,65,95,70,53,0.00,40.00,4,2,14,0.00
2013-7-17,88,71,61,73,67,61,100,91,61,0.00,40.00,4,2,11,0.57
2013-7-18,87,75,66,76,69,66,100,84,57,0.00,40.00,6,3,21,0.91
2013-7-19,79,70,62,69,61,53,100,78,41,0.00,40.00,6,2,14,0.08
2013-7-20,71,58,45,51,49,44,99,73,45,0.00,40.00,4,1,8,0.00
2013-7-21,72,54,46,52,48,45,99,83,48,0.00,40.00,5,2,13,0.00
2013-7-22,74,64,57,62,53,46,93,68,53,0.00,40.00,7,5,16,0.00
2013-7-23,72,58,47,53,50,46,97,78,49,0.00,40.00,3,1,11,0.00
2013-7-24,74,61,47,58,52,46,99,76,45,0.00,40.00,6,2,11,0.00
2013-7-25,75,62,54,61,57,53,99,85,54,0.00,40.00,5,2,10,0.23
2013-7-26,57,53,47,56,51,46,99,95,84,0.00,40.00,3,2,12,0.39
2013-7-27,53,49,45,51,47,44,98,95,90,0.00,40.00,4,2,15,0.38
2013-7-28,71,55,47,55,49,45,97,82,50,0.00,40.00,4,2,12,0.02
2013-7-29,76,58,45,59,51,45,99,81,45,0.00,40.00,5,1,10,0.00
2013-7-30,75,61,52,64,58,51,99,89,68,0.00,40.00,6,3,11,0.05
2013-7-31,74,65,59,60,55,48,98,72,41,0.00,40.00,6,3,16,0.05
2013-8-1,76,63,54,59,54,49,94,74,54,0.00,40.00,4,2,12,0.00
2013-8-2,75,60,49,54,51,47,99,75,42,0.00,40.00,4,2,14,0.00
2013-8-3,71,58,48,55,50,44,97,75,47,0.00,40.00,4,2,10,0.00
2013-8-4,73,56,41,56,47,40,99,77,37,0.00,40.00,4,1,10,0.00
2013-8-5,72,61,54,65,58,51,98,91,77,0.00,40.00,5,2,10,0.29
2013-8-6,69,60,51,62,57,51,99,90,65,0.00,40.00,5,2,10,0.08
2013-8-7,69,59,50,57,50,46,99,78,48,0.00,40.00,5,2,12,0.03
2013-8-8,70,58,49,53,50,46,98,78,49,0.00,40.00,4,2,11,0.00
2013-8-9,65,57,49,55,50,45,93,79,61,0.00,40.00,5,3,12,0.01
2013-8-10,77,62,47,57,52,46,99,74,39,0.00,40.00,4,2,9,0.01
2013-8-11,72,60,52,61,55,51,98,84,54,0.00,40.00,4,2,10,0.05
2013-8-12,73,59,47,57,51,45,99,79,45,0.00,40.00,4,2,13,0.01
2013-8-13,69,54,43,53,46,42,99,79,50,0.00,40.00,3,1,10,0.00
2013-8-14,76,55,40,52,44,-100,99,78,39,0.00,40.00,5,2,12,0.00
2013-8-15,77,51,45,58,33,-100,99,76,34,0.00,40.00,5,2,11,0.00
2013-8-16,81,62,48,62,53,-100,99,78,49,0.00,40.00,5,3,11,0.00
2013-8-17,80,66,54,59,54,-100,98,72,48,0.00,40.00,9,6,19,0.00
2013-8-18,80,70,59,63,58,56,92,70,51,0.00,40.00,10,6,18,0.00
2013-8-19,83,71,65,69,60,-100,84,75,55,0.00,40.00,6,5,11,0.00
2013-8-20,86,72,67,72,65,-100,97,85,64,0.00,40.00,8,5,15,0.00
2013-8-21,82,70,56,71,63,50,93,81,36,0.00,40.00,7,4,16,0.20
2013-8-22,79,62,49,56,51,48,97,71,35,0.00,40.00,4,2,10,0.02
2013-8-23,81,62,48,57,52,47,99,73,37,0.00,40.00,6,2,12,0.00
2013-8-24,85,70,57,69,61,-100,91,76,58,0.00,40.00,8,5,19,0.00
2013-8-25,86,78,72,73,71,68,90,81,64,0.00,40.00,9,5,17,0.03
2013-8-26,90,72,64,74,68,64,99,87,52,0.00,40.00,4,1,17,0.08
2013-8-27,88,70,62,74,68,62,99,95,59,0.00,40.00,4,1,7,0.15
2013-8-28,88,78,71,70,69,65,90,74,55,0.00,40.00,4,3,11,0.00
2013-8-29,74,68,62,71,66,62,99,93,80,0.00,40.00,6,2,14,0.56
2013-8-30,82,68,63,67,64,60,97,88,58,0.00,40.00,4,2,8,0.01
2013-8-31,83,66,61,69,60,-100,97,84,62,0.00,40.00,8,5,15,0.04
2013-9-1,63,59,52,62,57,50,98,92,79,0.00,40.00,4,2,12,0.08
2013-9-2,71,55,46,50,48,44,97,79,43,0.00,40.00,3,2,9,0.01
2013-9-3,79,61,42,61,52,41,98,76,47,0.00,40.00,6,3,14,0.00
2013-9-4,74,59,46,61,50,43,98,75,34,0.00,40.00,3,1,8,0.00
2013-9-5,77,56,41,55,46,40,98,76,34,0.00,40.00,6,2,11,0.00
2013-9-6,84,70,62,69,62,51,97,78,56,0.00,40.00,6,4,12,0.00
2013-9-7,80,63,59,69,59,-100,99,89,56,0.00,40.00,2,1,10,0.00
2013-9-8,68,57,45,56,52,44,99,83,54,0.00,40.00,5,2,14,0.03
2013-9-9,65,62,57,65,61,56,99,96,92,0.00,40.00,3,2,9,0.30
2013-9-10,75,66,61,66,62,57,99,86,60,0.00,40.00,5,2,16,0.16
2013-9-11,75,62,51,60,55,50,99,81,45,0.00,40.00,6,4,13,0.35
2013-9-12,63,53,41,53,49,37,99,87,50,0.00,40.00,4,2,13,0.35
2013-9-13,69,55,38,51,46,37,99,75,48,0.00,40.00,5,3,13,0.00
2013-9-14,74,59,52,59,49,-100,97,73,55,0.00,40.00,7,5,15,0.25
2013-9-15,63,54,36,54,47,35,98,79,46,0.00,40.00,4,2,10,0.35
2013-9-16,68,47,27,46,36,26,97,72,39,0.00,40.00,6,2,12,0.01
2013-9-17,71,56,35,51,46,34,98,73,44,0.00,40.00,8,4,19,0.00
2013-9-18,63,58,56,62,53,50,97,84,66,0.00,40.00,5,4,13,0.00
2013-9-19,71,66,62,69,65,60,99,97,92,0.00,40.00,4,2,13,0.70
2013-9-20,61,53,47,60,50,44,98,91,70,0.00,40.00,3,2,14,0.70
2013-9-21,59,47,34,44,37,-100,98,75,50,0.00,40.00,4,2,10,0.01
2013-9-22,66,50,28,47,40,27,97,73,47,0.00,40.00,9,5,15,0.00
2013-9-23,75,58,47,53,48,43,93,72,44,0.00,40.00,9,6,19,0.00
2013-9-24,76,59,49,55,51,48,98,77,43,0.00,40.00,6,4,14,0.00
2013-9-25,76,56,39,58,48,38,98,78,42,0.00,40.00,7,2,16,0.00
2013-9-26,76,58,45,56,51,44,99,80,49,0.00,40.00,9,5,19,0.00
2013-9-27,78,65,59,64,57,50,93,76,57,0.00,40.00,9,6,21,0.08
2013-9-28,71,60,47,61,52,-100,95,79,70,0.00,40.00,7,6,21,0.33
2013-9-29,74,55,41,48,44,39,94,71,33,0.00,40.00,7,3,18,0.04
2013-9-30,75,63,56,52,48,45,73,59,41,0.00,40.00,8,6,16,0.00
2013-10-1,62,56,51,35,34,32,54,43,32,0.00,40.00,5,4,24,0.00
2013-10-2,67,52,41,49,40,35,95,66,37,0.00,40.00,5,2,11,0.01
2013-10-3,66,48,35,52,41,34,98,80,47,0.00,40.00,4,1,11,0.01
2013-10-4,60,51,40,48,43,39,98,76,53,0.00,40.00,5,3,11,0.00
2013-10-5,51,45,43,43,41,37,97,87,66,0.00,40.00,6,4,15,0.34
2013-10-6,54,43,32,46,41,31,97,93,73,0.00,40.00,4,2,9,0.35
2013-10-7,63,44,31,48,37,30,98,80,43,0.00,40.00,5,2,15,0.01
2013-10-8,76,59,31,46,42,30,97,59,33,0.00,40.00,10,6,21,0.00
2013-10-9,76,61,46,51,47,44,97,63,42,0.00,40.00,6,4,12,0.00
2013-10-10,76,63,45,51,48,44,99,63,39,0.00,40.00,9,5,16,0.00
2013-10-11,75,61,52,55,50,43,91,68,44,0.00,40.00,12,6,25,0.03
2013-10-12,62,52,45,57,45,-100,95,82,71,0.00,40.00,12,6,24,0.10
2013-10-13,58,44,30,42,35,27,97,74,38,0.00,40.00,7,3,17,0.03
2013-10-14,51,37,24,43,33,22,98,88,59,0.00,40.00,3,1,7,0.49
2013-10-15,43,42,42,42,41,38,98,95,93,0.00,40.00,5,3,12,0.96
2013-10-16,54,42,28,39,34,27,96,79,44,0.00,40.00,6,2,12,0.02
2013-10-17,47,40,34,43,39,33,98,95,83,0.00,40.00,3,1,8,0.08
2013-10-18,47,35,25,38,31,24,98,86,51,0.00,40.00,6,1,12,0.03
2013-10-19,43,31,28,36,4,-100,97,65,67,0.00,40.00,4,1,9,0.01
2013-10-20,37,36,36,35,-32,-100,97,48,97,0.00,40.00,3,3,5,0.03